Time;durP1;ratioP1;P1;durP2;ratioP2;P2;SDS_P1;SDS_P2;PMS_P1;PMS_P2;Temp;Humidity;BMP_temperature;BMP_pressure;BME280_temperature;BME280_humidity;BME280_pressure;Samples;Min_cycle;Max_cycle;Signal;HPM_P1;HPM_P2
2023/07/27 00:00:05;;;;;;;5.03;3.13;;;;;;;12.72;100.00;100465.84;5027707;28;20430;-75
2023/07/27 00:02:31;;;;;;;3.95;2.20;;;;;;;12.78;100.00;100457.06;5026669;28;20037;-74
2023/07/27 00:04:56;;;;;;;5.20;2.80;;;;;;;12.75;100.00;100451.25;5044544;28;20025;-74
2023/07/27 00:07:22;;;;;;;7.23;2.90;;;;;;;12.80;100.00;100448.84;5043103;28;20060;-75
2023/07/27 00:09:47;;;;;;;5.10;2.37;;;;;;;12.87;100.00;100439.03;5007707;28;20087;-74
2023/07/27 00:12:12;;;;;;;8.10;2.20;;;;;;;12.84;100.00;100442.94;5026766;28;20119;-75
2023/07/27 00:14:37;;;;;;;4.70;1.90;;;;;;;12.80;100.00;100428.22;5043901;28;20056;-74
2023/07/27 00:17:03;;;;;;;5.67;2.87;;;;;;;12.89;100.00;100434.34;5043561;28;20041;-75
2023/07/27 00:19:28;;;;;;;4.40;2.10;;;;;;;12.86;100.00;100427.50;5045118;28;20032;-74
2023/07/27 00:21:54;;;;;;;3.70;2.10;;;;;;;12.92;100.00;100436.63;5032003;28;20059;-74
2023/07/27 00:24:19;;;;;;;5.27;2.43;;;;;;;12.92;100.00;100438.50;5010189;28;20017;-75
2023/07/27 00:26:44;;;;;;;4.10;1.87;;;;;;;12.93;100.00;100438.31;5026845;28;20048;-74
2023/07/27 00:29:10;;;;;;;5.37;2.33;;;;;;;12.91;100.00;100456.41;5043349;28;20028;-73
2023/07/27 00:31:35;;;;;;;9.10;2.70;;;;;;;12.89;100.00;100466.50;5026833;28;20119;-74
2023/07/27 00:34:00;;;;;;;6.97;3.03;;;;;;;12.79;100.00;100468.63;5025839;28;20474;-74
2023/07/27 00:36:27;;;;;;;5.67;3.07;;;;;;;12.70;100.00;100469.72;5043378;28;20051;-75
2023/07/27 00:38:52;;;;;;;7.30;3.20;;;;;;;12.64;100.00;100474.78;5026826;28;20021;-75
2023/07/27 00:41:18;;;;;;;9.53;4.73;;;;;;;12.58;100.00;100488.06;5044542;28;20143;-75
2023/07/27 00:43:43;;;;;;;9.43;4.13;;;;;;;12.59;100.00;100493.22;5006865;28;20057;-75
2023/07/27 00:46:10;;;;;;;8.95;4.15;;;;;;;12.64;100.00;100490.88;5026012;28;20025;-75
2023/07/27 00:48:36;;;;;;;9.85;4.10;;;;;;;12.63;100.00;100481.16;5026665;28;20040;-75
2023/07/27 00:51:02;;;;;;;7.80;4.50;;;;;;;12.69;100.00;100479.59;5026244;28;20037;-77
2023/07/27 00:53:28;;;;;;;13.57;4.68;;;;;;;12.69;100.00;100474.25;5025875;28;20311;-77
2023/07/27 00:55:53;;;;;;;7.20;4.40;;;;;;;12.70;100.00;100475.06;5026445;28;20132;-77
2023/07/27 00:58:19;;;;;;;8.30;4.57;;;;;;;12.66;100.00;100475.41;5026338;28;20055;-76
2023/07/27 01:00:44;;;;;;;7.03;4.25;;;;;;;12.71;100.00;100471.38;5026348;28;20033;-77
2023/07/27 01:03:10;;;;;;;7.80;4.10;;;;;;;12.64;100.00;100472.13;5043611;28;20025;-77
2023/07/27 01:05:37;;;;;;;8.35;3.92;;;;;;;12.61;100.00;100475.13;5026616;28;20218;-76
2023/07/27 01:08:03;;;;;;;7.65;4.13;;;;;;;12.64;100.00;100465.91;5043793;28;20712;-76
2023/07/27 01:10:46;;;;;;;10.13;4.22;;;;;;;12.58;100.00;100474.69;5043083;28;20051;-77
2023/07/27 01:13:26;;;;;;;8.95;5.00;;;;;;;12.63;100.00;100465.06;5025753;28;20033;-77
2023/07/27 01:16:03;;;;;;;9.23;4.85;;;;;;;12.66;100.00;100469.22;5009867;28;20115;-77
2023/07/27 01:18:53;;;;;;;10.23;4.22;;;;;;;12.60;100.00;100449.38;5020801;28;20302;-76
2023/07/27 01:21:42;;;;;;;6.85;4.25;;;;;;;12.55;100.00;100438.41;5021970;28;20037;-76
2023/07/27 01:24:26;;;;;;;7.28;4.43;;;;;;;12.49;100.00;100438.28;5009480;28;20152;-76
2023/07/27 01:26:58;;;;;;;7.05;3.80;;;;;;;12.50;100.00;100431.91;5013550;28;20033;-77
2023/07/27 01:30:06;;;;;;;5.57;3.83;;;;;;;12.49;100.00;100432.94;5013668;28;20081;-76
2023/07/27 01:32:35;;;;;;;8.68;4.30;;;;;;;12.41;100.00;100423.16;5024458;28;20033;-76
2023/07/27 01:35:02;;;;;;;7.53;4.30;;;;;;;12.36;100.00;100430.88;5017700;28;20025;-77
2023/07/27 01:37:30;;;;;;;7.03;4.53;;;;;;;12.42;100.00;100430.16;5046586;28;20037;-78
2023/07/27 01:39:57;;;;;;;10.80;3.90;;;;;;;12.38;100.00;100428.84;5029468;28;20021;-77
2023/07/27 01:42:24;;;;;;;8.65;4.38;;;;;;;12.30;100.00;100431.63;5012891;28;20074;-78
2023/07/27 01:44:52;;;;;;;8.43;4.43;;;;;;;12.25;100.00;100424.13;5047378;28;20469;-77
2023/07/27 01:47:18;;;;;;;8.75;4.45;;;;;;;12.24;100.00;100425.97;5032939;28;20447;-77
2023/07/27 01:49:45;;;;;;;7.65;3.72;;;;;;;12.21;100.00;100428.16;5029911;28;20482;-77
2023/07/27 01:52:14;;;;;;;7.78;3.60;;;;;;;12.23;100.00;100418.94;5029462;28;20060;-77
2023/07/27 01:54:39;;;;;;;7.50;4.07;;;;;;;12.23;100.00;100416.25;5029596;28;20021;-77
2023/07/27 01:57:06;;;;;;;8.38;4.15;;;;;;;12.19;100.00;100420.31;5029571;28;20563;-77
2023/07/27 01:59:33;;;;;;;10.82;4.65;;;;;;;12.17;100.00;100421.50;5009829;28;20061;-78
2023/07/27 02:02:00;;;;;;;11.55;4.57;;;;;;;12.15;100.00;100420.84;5044691;28;20086;-78
2023/07/27 02:04:26;;;;;;;10.40;4.28;;;;;;;12.18;100.00;100421.34;5023752;28;20066;-77
2023/07/27 02:06:52;;;;;;;9.02;4.63;;;;;;;12.16;100.00;100417.19;5035058;28;20556;-77
2023/07/27 02:09:17;;;;;;;10.90;5.25;;;;;;;12.16;100.00;100420.69;5022152;28;20029;-78
2023/07/27 02:11:47;;;;;;;11.00;5.00;;;;;;;12.14;100.00;100419.19;5045772;28;20157;-77
2023/07/27 02:14:38;;;;;;;7.32;4.88;;;;;;;12.05;100.00;100415.75;5046312;28;20115;-77
2023/07/27 02:17:20;;;;;;;6.90;4.60;;;;;;;12.04;100.00;100420.28;5046876;28;20037;-77
2023/07/27 02:19:51;;;;;;;6.82;4.93;;;;;;;12.07;100.00;100419.09;5029360;28;20103;-78
2023/07/27 02:22:17;;;;;;;10.18;5.30;;;;;;;12.11;100.00;100419.56;5027768;28;20564;-77
2023/07/27 02:24:42;;;;;;;9.02;5.38;;;;;;;12.07;100.00;100416.41;5046764;28;20031;-76
2023/07/27 02:27:08;;;;;;;7.97;5.03;;;;;;;12.05;100.00;100415.75;5028848;28;20068;-76
2023/07/27 02:29:33;;;;;;;8.30;4.32;;;;;;;12.08;100.00;100406.53;5029045;28;20017;-76
2023/07/27 02:32:02;;;;;;;9.40;4.57;;;;;;;12.08;100.00;100399.34;5016535;28;20029;-76
2023/07/27 02:34:27;;;;;;;14.07;5.30;;;;;;;12.08;100.00;100403.84;5028426;28;20025;-76
2023/07/27 02:36:53;;;;;;;9.95;5.60;;;;;;;12.02;100.00;100402.75;5033084;28;20037;-76
2023/07/27 02:39:18;;;;;;;9.03;4.33;;;;;;;12.00;100.00;100404.75;5032029;28;20103;-76
2023/07/27 02:41:44;;;;;;;10.10;6.03;;;;;;;12.01;100.00;100404.59;5008876;28;20029;-77
2023/07/27 02:44:14;;;;;;;7.57;5.47;;;;;;;12.03;100.00;100407.94;5045354;28;20466;-77
2023/07/27 02:46:39;;;;;;;9.90;4.87;;;;;;;12.04;100.00;100400.72;5046460;28;20079;-76
2023/07/27 02:49:06;;;;;;;;;;;;;;;12.08;100.00;100402.03;5029449;28;20024;-75
2023/07/27 02:51:31;;;;;;;10.80;5.53;;;;;;;12.01;100.00;100401.91;5046456;28;19924;-75
2023/07/27 02:53:57;;;;;;;;;;;;;;;12.09;100.00;100408.22;5028513;28;20025;-77
2023/07/27 02:56:27;;;;;;;11.57;5.22;;;;;;;12.02;100.00;100397.41;5023058;28;19920;-77
2023/07/27 02:58:52;;;;;;;8.93;5.53;;;;;;;11.99;100.00;100392.41;5017490;28;20035;-76
2023/07/27 03:01:18;;;;;;;12.88;6.50;;;;;;;12.03;100.00;100402.56;5028308;28;20428;-76
2023/07/27 03:03:46;;;;;;;10.60;5.82;;;;;;;12.00;100.00;100394.88;5027725;28;20405;-76
2023/07/27 03:06:12;;;;;;;9.48;6.03;;;;;;;11.97;100.00;100397.09;5011679;28;20029;-77
2023/07/27 03:08:41;;;;;;;15.70;6.32;;;;;;;11.92;100.00;100386.94;5008828;28;20493;-76
2023/07/27 03:11:06;;;;;;;10.63;5.93;;;;;;;11.87;100.00;100383.09;5027566;28;20024;-77
2023/07/27 03:13:32;;;;;;;8.73;5.03;;;;;;;11.82;100.00;100381.81;5045334;28;20325;-76
2023/07/27 03:15:59;;;;;;;8.90;5.75;;;;;;;11.86;100.00;100384.13;5011407;28;20094;-76
2023/07/27 03:18:25;;;;;;;12.95;5.75;;;;;;;11.84;100.00;100395.00;5045723;28;20090;-76
2023/07/27 03:20:50;;;;;;;10.83;5.80;;;;;;;11.79;100.00;100387.50;5044178;28;20496;-75
2023/07/27 03:23:16;;;;;;;12.07;6.63;;;;;;;11.73;100.00;100390.91;5030774;28;20273;-74
2023/07/27 03:25:41;;;;;;;14.57;7.47;;;;;;;11.63;100.00;100387.63;5008814;28;20654;-76
2023/07/27 03:28:08;;;;;;;10.17;5.57;;;;;;;11.69;100.00;100394.13;5027567;28;20259;-75
2023/07/27 03:30:36;;;;;;;;;;;;;;;11.70;100.00;100391.25;5045798;28;20037;-75
2023/07/27 03:33:06;;;;;;;13.93;6.60;;;;;;;11.68;100.00;100387.09;5010902;28;19920;-76
2023/07/27 03:35:32;;;;;;;10.82;6.55;;;;;;;11.68;100.00;100395.13;5045104;28;20585;-75
2023/07/27 03:37:58;;;;;;;13.27;7.97;;;;;;;11.67;100.00;100382.75;5027569;28;20021;-75
2023/07/27 03:40:23;;;;;;;15.20;7.43;;;;;;;11.66;100.00;100381.94;5030695;28;20490;-75
2023/07/27 03:42:48;;;;;;;12.60;6.73;;;;;;;11.65;100.00;100385.59;5044633;28;20033;-76
2023/07/27 03:45:17;;;;;;;14.38;7.20;;;;;;;11.63;100.00;100382.28;5033728;28;20443;-75
2023/07/27 03:47:44;;;;;;;16.77;7.35;;;;;;;11.63;100.00;100384.94;5027112;28;20029;-75
2023/07/27 03:50:11;;;;;;;14.32;7.20;;;;;;;11.62;100.00;100391.31;5027021;28;20513;-75
2023/07/27 03:52:37;;;;;;;14.13;6.45;;;;;;;11.64;100.00;100389.31;5044507;28;20037;-75
2023/07/27 03:55:07;;;;;;;14.45;6.65;;;;;;;11.65;100.00;100393.63;5010909;28;20140;-75
2023/07/27 03:57:32;;;;;;;13.98;7.68;;;;;;;11.61;100.00;100385.16;5007954;28;20124;-75
2023/07/27 03:59:59;;;;;;;12.85;6.57;;;;;;;11.65;100.00;100382.94;5025886;28;20055;-75
2023/07/27 04:02:25;;;;;;;10.05;6.55;;;;;;;11.64;100.00;100377.78;5010125;28;20273;-74
2023/07/27 04:04:51;;;;;;;12.68;6.20;;;;;;;11.62;100.00;100380.63;5010719;28;20028;-75
2023/07/27 04:07:18;;;;;;;14.90;7.28;;;;;;;11.64;100.00;100378.59;5010523;28;20044;-77
2023/07/27 04:09:43;;;;;;;13.45;7.40;;;;;;;11.71;100.00;100376.88;5044803;28;20107;-75
2023/07/27 04:12:09;;;;;;;11.68;6.85;;;;;;;11.73;100.00;100369.53;5026323;28;20127;-76
2023/07/27 04:14:35;;;;;;;14.45;7.63;;;;;;;11.78;100.00;100364.47;5026799;28;20479;-74
2023/07/27 04:17:00;;;;;;;16.48;7.30;;;;;;;11.73;100.00;100366.84;5026827;28;20028;-75
2023/07/27 04:19:25;;;;;;;15.70;7.20;;;;;;;11.81;100.00;100364.09;5004739;28;20032;-75
2023/07/27 04:21:51;;;;;;;18.53;6.60;;;;;;;11.88;100.00;100364.25;5010249;28;20171;-75
2023/07/27 04:24:16;;;;;;;16.07;6.83;;;;;;;11.89;100.00;100349.00;5009799;28;20031;-76
2023/07/27 04:26:41;;;;;;;12.40;6.73;;;;;;;12.00;100.00;100356.59;5033511;28;20388;-74
2023/07/27 04:29:07;;;;;;;16.93;7.30;;;;;;;12.03;100.00;100365.13;5012816;28;20025;-74
2023/07/27 04:31:32;;;;;;;13.47;7.10;;;;;;;12.12;100.00;100360.50;5043084;28;20041;-74
2023/07/27 04:33:58;;;;;;;15.37;6.67;;;;;;;12.19;100.00;100355.25;5014469;28;20104;-74
2023/07/27 04:36:23;;;;;;;11.10;7.35;;;;;;;12.19;100.00;100345.38;5044483;28;20041;-74
2023/07/27 04:38:48;;;;;;;14.30;7.07;;;;;;;12.27;100.00;100354.34;5042981;28;20040;-74
2023/07/27 04:41:14;;;;;;;11.00;6.23;;;;;;;12.33;100.00;100348.25;5026406;28;20033;-75
2023/07/27 04:43:39;;;;;;;12.27;6.80;;;;;;;12.30;100.00;100332.56;5042724;28;20032;-74
2023/07/27 04:46:05;;;;;;;10.63;7.13;;;;;;;12.42;100.00;100339.13;5043735;28;20029;-74
2023/07/27 04:48:31;;;;;;;12.87;7.93;;;;;;;12.53;100.00;100329.81;5043146;28;20064;-75
2023/07/27 04:50:56;;;;;;;12.50;6.55;;;;;;;12.52;100.00;100322.78;5026652;28;20216;-75
2023/07/27 04:53:21;;;;;;;13.80;6.03;;;;;;;12.62;100.00;100323.34;5012758;28;20025;-75
2023/07/27 04:55:47;;;;;;;13.80;6.63;;;;;;;12.76;100.00;100311.78;5043160;28;20040;-75
2023/07/27 04:58:12;;;;;;;16.00;7.70;;;;;;;12.85;100.00;100309.81;5026542;28;20549;-75
2023/07/27 05:00:37;;;;;;;9.50;6.23;;;;;;;12.81;100.00;100300.50;5044982;28;20468;-75
2023/07/27 05:03:03;;;;;;;11.90;6.80;;;;;;;13.17;100.00;100300.47;5047793;28;20146;-75
2023/07/27 05:05:28;;;;;;;13.23;6.70;;;;;;;13.36;100.00;100300.91;5030724;28;20138;-75
2023/07/27 05:07:54;;;;;;;9.37;5.67;;;;;;;13.58;100.00;100294.53;5029989;28;20271;-75
2023/07/27 05:10:19;;;;;;;13.93;8.50;;;;;;;13.61;100.00;100290.63;5033855;28;20041;-75
2023/07/27 05:12:45;;;;;;;13.23;7.00;;;;;;;13.61;100.00;100286.06;5029782;28;20029;-75
2023/07/27 05:15:10;;;;;;;14.68;7.47;;;;;;;13.73;100.00;100281.00;5048040;28;20033;-75
2023/07/27 05:17:35;;;;;;;11.23;5.67;;;;;;;13.70;100.00;100276.03;5047103;28;20029;-75
2023/07/27 05:20:02;;;;;;;15.40;7.60;;;;;;;13.82;100.00;100271.78;5048023;28;20033;-75
2023/07/27 05:22:27;;;;;;;13.18;6.75;;;;;;;13.54;100.00;100257.56;5029502;28;20029;-75
2023/07/27 05:24:52;;;;;;;9.33;5.40;;;;;;;13.82;100.00;100263.75;5047828;28;20043;-75
2023/07/27 05:27:18;;;;;;;12.13;6.23;;;;;;;13.99;100.00;100260.75;5048082;28;20059;-75
2023/07/27 05:29:43;;;;;;;16.50;7.37;;;;;;;14.40;100.00;100257.25;5030242;28;20163;-75
2023/07/27 05:32:09;;;;;;;11.63;6.63;;;;;;;14.92;100.00;100237.03;5029974;28;20481;-75
2023/07/27 05:34:34;;;;;;;12.50;5.70;;;;;;;15.57;100.00;100210.41;5047821;28;20033;-75
2023/07/27 05:37:00;;;;;;;9.25;6.15;;;;;;;16.01;100.00;100169.34;5047590;28;20029;-75
2023/07/27 05:39:25;;;;;;;9.05;4.97;;;;;;;16.72;100.00;100159.47;5047688;28;20044;-75
2023/07/27 05:41:51;;;;;;;12.63;4.80;;;;;;;17.91;100.00;100100.13;5028324;28;20032;-75
2023/07/27 05:44:16;;;;;;;7.37;4.33;;;;;;;18.49;100.00;99999.53;5047283;28;20029;-75
2023/07/27 05:46:41;;;;;;;7.27;4.67;;;;;;;17.82;100.00;99862.03;5025536;28;20137;-75
2023/07/27 05:49:07;;;;;;;9.17;5.73;;;;;;;17.88;100.00;99892.66;5047066;28;20033;-75
2023/07/27 05:51:32;;;;;;;12.43;5.20;;;;;;;17.86;100.00;99792.16;5030223;28;20032;-74
2023/07/27 05:53:57;;;;;;;10.77;4.83;;;;;;;18.79;100.00;99898.63;5029778;28;20064;-75
2023/07/27 05:56:23;;;;;;;7.30;4.20;;;;;;;18.74;100.00;99749.78;5048312;28;20077;-75
2023/07/27 05:58:48;;;;;;;7.57;4.73;;;;;;;18.42;100.00;99595.38;5047898;28;20584;-76
2023/07/27 06:01:16;;;;;;;9.60;5.53;;;;;;;17.60;100.00;99586.41;5048420;28;20056;-75
2023/07/27 06:03:41;;;;;;;8.65;4.93;;;;;;;17.83;100.00;99674.66;5029574;28;20056;-75
2023/07/27 06:06:07;;;;;;;10.20;4.75;;;;;;;18.11;100.00;99578.56;5029790;28;20059;-74
2023/07/27 06:08:33;;;;;;;7.33;4.30;;;;;;;18.77;100.00;99676.31;5030062;28;20143;-75
2023/07/27 06:11:09;;;;;;;8.82;4.47;;;;;;;19.91;100.00;99474.78;5047612;28;20435;-76
2023/07/27 06:13:35;;;;;;;7.40;4.28;;;;;;;18.07;100.00;99327.06;5024629;28;20032;-75
2023/07/27 06:16:01;;;;;;;10.80;4.28;;;;;;;17.81;100.00;99562.56;5029840;28;20045;-75
2023/07/27 06:18:26;;;;;;;6.25;4.38;;;;;;;18.04;100.00;99634.59;5026557;28;20103;-75
2023/07/27 06:20:52;;;;;;;7.25;3.72;;;;;;;19.42;100.00;99565.91;5027357;28;20036;-74
2023/07/27 06:23:18;;;;;;;6.45;3.80;;;;;;;18.91;100.00;99390.19;5028878;28;20541;-75
2023/07/27 06:25:44;;;;;;;4.82;3.17;;;;;;;19.32;100.00;99318.47;5029004;28;20375;-76
2023/07/27 06:28:09;;;;;;;7.85;4.03;;;;;;;18.21;100.00;99415.88;5047138;28;20029;-75
2023/07/27 06:30:36;;;;;;;8.43;4.00;;;;;;;18.49;100.00;99594.13;5009888;28;20394;-76
2023/07/27 06:33:01;;;;;;;;;;;;;;;18.38;100.00;99314.03;5011246;28;20041;-76
2023/07/27 06:35:26;;;;;;;9.90;3.90;;;;;;;18.16;100.00;99427.41;5047050;28;19971;-76
2023/07/27 06:37:52;;;;;;;7.00;4.13;;;;;;;18.50;100.00;99474.19;5046921;28;20482;-75
2023/07/27 06:40:17;;;;;;;5.30;3.37;;;;;;;18.02;100.00;99428.78;5043657;28;20423;-76
2023/07/27 06:42:42;;;;;;;7.10;3.80;;;;;;;18.21;100.00;99546.34;5028679;28;20052;-75
2023/07/27 06:45:08;;;;;;;6.87;4.50;;;;;;;18.74;100.00;99569.44;5037271;28;20111;-76
2023/07/27 06:47:33;;;;;;;6.88;4.18;;;;;;;19.32;100.00;99434.00;5027789;28;20036;-76
2023/07/27 06:49:59;;;;;;;6.60;3.97;;;;;;;17.57;100.00;99470.84;5029109;28;20612;-76
2023/07/27 06:52:24;;;;;;;6.10;3.17;;;;;;;18.21;100.00;99640.88;5046072;28;20029;-76
2023/07/27 06:54:49;;;;;;;5.10;2.87;;;;;;;18.55;100.00;99668.88;5044995;28;20028;-76
2023/07/27 06:57:15;;;;;;;7.20;3.23;;;;;;;18.38;100.00;99662.59;5046471;28;20398;-77
2023/07/27 06:59:40;;;;;;;6.37;4.00;;;;;;;18.25;100.00;99658.28;5008627;28;20025;-77
2023/07/27 07:02:06;;;;;;;5.63;3.57;;;;;;;17.69;100.00;99663.25;5045632;28;20533;-77
2023/07/27 07:04:31;;;;;;;12.30;4.07;;;;;;;17.78;100.00;99833.00;5028514;28;20811;-77
2023/07/27 07:06:57;;;;;;;9.73;4.40;;;;;;;17.59;100.00;99862.75;5016815;28;20120;-75
2023/07/27 07:09:23;;;;;;;;;;;;;;;17.43;100.00;99982.94;5032420;28;20404;-77
2023/07/27 07:11:48;;;;;;;7.32;3.75;;;;;;;16.42;100.00;99766.75;5027965;28;19912;-76
2023/07/27 07:14:14;;;;;;;7.03;4.23;;;;;;;16.49;100.00;99984.06;5043930;28;20025;-76
2023/07/27 07:16:39;;;;;;;13.55;4.53;;;;;;;16.65;100.00;100112.88;5045886;28;20726;-76
2023/07/27 07:19:05;;;;;;;8.23;4.40;;;;;;;16.61;100.00;100033.50;5044504;28;20021;-76
2023/07/27 07:21:30;;;;;;;12.67;5.27;;;;;;;16.61;100.00;100028.94;5027955;28;20041;-76
2023/07/27 07:23:55;;;;;;;10.87;5.00;;;;;;;16.62;100.00;100078.25;5044568;28;20033;-76
2023/07/27 07:26:21;;;;;;;14.13;4.87;;;;;;;17.00;100.00;100099.78;5031373;28;20037;-76
2023/07/27 07:28:46;;;;;;;8.10;4.57;;;;;;;17.37;100.00;100101.72;5027701;28;20033;-75
2023/07/27 07:31:12;;;;;;;12.37;5.23;;;;;;;17.37;100.00;100018.09;5027639;28;20390;-76
2023/07/27 07:33:37;;;;;;;6.70;4.87;;;;;;;17.65;100.00;100102.06;5045414;28;20481;-77
2023/07/27 07:36:03;;;;;;;15.17;4.80;;;;;;;17.73;100.00;100047.75;5011316;28;20127;-76
2023/07/27 07:38:28;;;;;;;7.13;4.87;;;;;;;17.87;100.00;99861.34;5009471;28;20478;-77
2023/07/27 07:40:53;;;;;;;9.20;5.20;;;;;;;17.54;100.00;99868.03;5025617;28;20128;-77
2023/07/27 07:43:19;;;;;;;10.27;5.77;;;;;;;18.06;100.00;99937.69;5026471;28;20029;-77
2023/07/27 07:45:44;;;;;;;9.37;5.20;;;;;;;18.28;100.00;99929.84;5027550;28;20052;-76
2023/07/27 07:48:09;;;;;;;9.37;4.73;;;;;;;18.61;100.00;99760.84;5027830;28;20551;-76
2023/07/27 07:50:37;;;;;;;8.03;4.87;;;;;;;19.03;100.00;99642.44;5027348;28;20048;-76
2023/07/27 07:53:02;;;;;;;8.10;4.13;;;;;;;19.42;100.00;99593.81;5044589;28;20037;-76
2023/07/27 07:55:27;;;;;;;9.18;4.82;;;;;;;18.85;100.00;99505.59;5043899;28;20091;-77
2023/07/27 07:57:53;;;;;;;8.20;5.63;;;;;;;18.80;100.00;99613.66;5031126;28;20060;-75
2023/07/27 08:00:18;;;;;;;7.17;4.00;;;;;;;18.30;100.00;99522.47;5011534;28;20029;-77
2023/07/27 08:02:47;;;;;;;9.38;4.43;;;;;;;17.56;100.00;99511.56;5027190;28;20020;-77
2023/07/27 08:05:12;;;;;;;10.75;4.35;;;;;;;17.16;100.00;99577.88;5027763;28;20533;-76
2023/07/27 08:07:37;;;;;;;6.63;4.00;;;;;;;17.15;100.00;99684.09;5045398;28;20048;-76
2023/07/27 08:10:04;;;;;;;7.17;4.07;;;;;;;17.21;100.00;99723.66;5027671;28;20132;-76
2023/07/27 08:12:29;;;;;;;8.88;4.00;;;;;;;16.99;100.00;99712.53;5043313;28;20536;-76
2023/07/27 08:14:55;;;;;;;11.63;4.80;;;;;;;16.63;100.00;99753.88;5009590;28;20037;-76
2023/07/27 08:17:20;;;;;;;8.67;4.00;;;;;;;16.55;100.00;99927.44;5030288;28;20028;-76
2023/07/27 08:19:45;;;;;;;6.43;3.73;;;;;;;17.02;100.00;100021.34;5044659;28;20029;-76
2023/07/27 08:22:11;;;;;;;6.83;5.10;;;;;;;17.15;100.00;100001.53;5026195;28;20131;-76
2023/07/27 08:24:36;;;;;;;12.97;5.30;;;;;;;17.05;100.00;99926.53;5043327;28;20116;-75
2023/07/27 08:27:04;;;;;;;11.97;4.80;;;;;;;16.67;100.00;99900.59;5044586;28;20727;-75
2023/07/27 08:29:30;;;;;;;7.25;4.63;;;;;;;16.67;100.00;99877.16;5044480;28;20037;-76
2023/07/27 08:31:55;;;;;;;6.80;4.10;;;;;;;16.78;100.00;99952.91;5043094;28;20097;-77
2023/07/27 08:34:21;;;;;;;8.63;4.97;;;;;;;17.14;100.00;99967.50;5025819;28;20127;-76
2023/07/27 08:36:50;;;;;;;9.43;5.05;;;;;;;16.97;100.00;99932.22;5009064;28;20485;-75
2023/07/27 08:39:15;;;;;;;8.05;5.22;;;;;;;17.16;100.00;100009.41;5025525;28;20499;-76
2023/07/27 08:41:41;;;;;;;11.97;5.87;;;;;;;17.30;100.00;100010.91;5043383;28;20032;-76
2023/07/27 08:44:07;;;;;;;11.57;5.07;;;;;;;17.43;100.00;99938.94;5043999;28;20075;-75
2023/07/27 08:46:33;;;;;;;9.77;4.70;;;;;;;17.27;100.00;99881.03;5007707;28;20057;-75
2023/07/27 08:49:01;;;;;;;10.95;5.60;;;;;;;17.22;100.00;99781.91;5026069;28;20036;-76
2023/07/27 08:51:32;;;;;;;7.72;5.00;;;;;;;17.10;100.00;99861.97;5045006;28;20029;-75
2023/07/27 08:53:58;;;;;;;7.80;4.60;;;;;;;17.21;100.00;99836.13;5044342;28;20041;-76
2023/07/27 08:56:24;;;;;;;7.80;4.70;;;;;;;17.27;100.00;99782.03;5042291;28;20083;-76
2023/07/27 08:58:50;;;;;;;9.50;5.40;;;;;;;17.37;100.00;99815.75;5008252;28;20045;-76
2023/07/27 09:01:15;;;;;;;8.52;4.85;;;;;;;17.20;100.00;99788.59;5027321;28;20025;-75
2023/07/27 09:03:42;;;;;;;7.10;5.07;;;;;;;17.15;100.00;99775.78;5026693;28;20035;-76
2023/07/27 09:06:07;;;;;;;8.63;4.55;;;;;;;17.25;100.00;99830.00;5042270;28;20029;-76
2023/07/27 09:08:33;;;;;;;8.17;4.83;;;;;;;17.02;100.00;99827.19;5027376;28;20029;-76
2023/07/27 09:11:07;;;;;;;9.07;5.75;;;;;;;17.01;100.00;99882.19;5025992;28;20027;-76
2023/07/27 09:13:33;;;;;;;7.15;5.05;;;;;;;17.13;100.00;99868.78;5039619;28;20087;-75
2023/07/27 09:16:01;;;;;;;12.00;5.55;;;;;;;17.29;100.00;99882.44;5026942;28;20013;-76
2023/07/27 09:18:27;;;;;;;9.38;5.40;;;;;;;17.55;100.00;99852.63;5020780;28;20040;-74
2023/07/27 09:20:55;;;;;;;10.32;5.03;;;;;;;17.57;100.00;99827.06;5044297;28;20021;-76
2023/07/27 09:23:21;;;;;;;8.43;4.97;;;;;;;17.34;100.00;99675.94;5026327;28;20033;-75
2023/07/27 09:25:54;;;;;;;8.13;5.50;;;;;;;16.91;100.00;99612.31;5043419;28;20056;-74
2023/07/27 09:28:24;;;;;;;9.80;6.65;;;;;;;17.26;100.00;99820.06;5025452;28;20079;-76
2023/07/27 09:30:49;;;;;;;13.43;5.85;;;;;;;17.27;100.00;99754.25;5043812;28;20418;-75
2023/07/27 09:33:14;;;;;;;8.77;5.53;;;;;;;17.08;100.00;99718.44;5025629;28;20040;-75
2023/07/27 09:35:40;;;;;;;10.33;5.60;;;;;;;17.05;100.00;99780.94;5042877;28;20048;-75
2023/07/27 09:38:08;;;;;;;12.80;5.93;;;;;;;17.40;100.00;99853.88;5044010;28;20025;-76
2023/07/27 09:40:34;;;;;;;11.57;5.80;;;;;;;17.38;100.00;99739.16;5026265;28;20056;-76
2023/07/27 09:43:05;;;;;;;9.45;4.72;;;;;;;17.71;100.00;99746.72;5025713;28;20466;-75
2023/07/27 09:45:37;;;;;;;9.00;5.05;;;;;;;17.59;100.00;99690.03;5037562;28;20024;-75
2023/07/27 09:48:02;;;;;;;8.27;5.07;;;;;;;18.02;100.00;99728.53;5047288;28;20036;-75
2023/07/27 09:50:29;;;;;;;9.15;4.85;;;;;;;18.52;100.00;99780.16;5026495;28;20092;-75
2023/07/27 09:52:56;;;;;;;12.52;5.40;;;;;;;18.27;100.00;99617.50;5045453;28;20037;-75
2023/07/27 09:55:24;;;;;;;9.93;5.28;;;;;;;18.02;100.00;99462.00;5029531;28;20017;-74
2023/07/27 09:57:50;;;;;;;10.35;5.85;;;;;;;17.69;100.00;99500.50;5029809;28;20041;-75
2023/07/27 10:00:16;;;;;;;6.72;5.30;;;;;;;18.17;100.00;99636.22;5012901;28;20124;-75
2023/07/27 10:02:41;;;;;;;10.32;5.47;;;;;;;18.12;100.00;99554.03;5046863;28;20147;-75
2023/07/27 10:05:09;;;;;;;10.45;5.25;;;;;;;18.34;100.00;99594.69;5029506;28;20036;-75
2023/07/27 10:07:34;;;;;;;13.43;5.80;;;;;;;17.86;100.00;99520.31;5026531;28;20014;-74
2023/07/27 10:10:26;;;;;;;9.97;5.97;;;;;;;17.50;100.00;99578.91;5046261;28;20468;-75
2023/07/27 10:12:54;;;;;;;10.52;6.30;;;;;;;17.20;100.00;99645.66;5026169;28;20884;-74
2023/07/27 10:15:21;;;;;;;9.27;5.43;;;;;;;17.35;100.00;99691.03;5012837;28;20493;-74
2023/07/27 10:17:49;;;;;;;11.85;5.95;;;;;;;17.04;100.00;99703.75;5029233;28;20151;-75
2023/07/27 10:20:29;;;;;;;11.65;6.75;;;;;;;17.20;100.00;99816.38;5027791;28;20385;-75
2023/07/27 10:23:17;;;;;;;9.88;6.13;;;;;;;17.09;100.00;99844.97;5045226;28;20501;-75
2023/07/27 10:25:55;;;;;;;9.48;5.90;;;;;;;16.93;100.00;99923.78;5022765;28;20064;-75
2023/07/27 10:28:36;;;;;;;8.20;5.25;;;;;;;17.12;100.00;99953.44;5046209;28;20389;-75
2023/07/27 10:31:14;;;;;;;9.60;5.93;;;;;;;17.37;100.00;99938.00;5028989;28;20123;-75
2023/07/27 10:33:47;;;;;;;10.13;6.20;;;;;;;17.39;100.00;99913.47;5011884;28;20113;-75
2023/07/27 10:36:14;;;;;;;12.63;6.03;;;;;;;17.11;100.00;99917.53;5028670;28;20037;-75
2023/07/27 10:38:40;;;;;;;11.88;6.95;;;;;;;17.22;100.00;99887.13;5028913;28;20066;-75
2023/07/27 10:41:15;;;;;;;11.03;6.27;;;;;;;17.14;100.00;99922.50;5046752;28;20037;-75
2023/07/27 10:44:18;;;;;;;12.52;6.43;;;;;;;17.13;100.00;99982.88;5028818;28;20086;-75
2023/07/27 10:46:47;;;;;;;11.00;6.72;;;;;;;17.00;100.00;99929.91;5021947;28;20042;-74
2023/07/27 10:49:16;;;;;;;10.18;5.75;;;;;;;16.99;100.00;100013.72;5044988;28;20379;-75
2023/07/27 10:51:44;;;;;;;11.00;6.60;;;;;;;17.00;100.00;99966.84;5009584;28;20470;-75
2023/07/27 10:54:10;;;;;;;11.73;6.43;;;;;;;17.03;100.00;99977.16;5027926;28;20036;-75
2023/07/27 10:56:35;;;;;;;14.30;6.25;;;;;;;17.07;100.00;99898.31;5028322;28;20040;-75
2023/07/27 10:59:01;;;;;;;13.93;7.07;;;;;;;16.81;100.00;99885.94;5015568;28;20037;-74
2023/07/27 11:01:28;;;;;;;9.35;6.30;;;;;;;16.91;100.00;100014.84;5022783;28;20060;-75
2023/07/27 11:03:57;;;;;;;9.18;5.47;;;;;;;17.24;100.00;100065.75;5045735;28;20036;-75
2023/07/27 11:06:28;;;;;;;14.65;5.95;;;;;;;16.85;100.00;99970.69;5031905;28;20070;-75
2023/07/27 11:08:55;;;;;;;10.43;7.03;;;;;;;17.40;100.00;100031.16;5026254;28;20033;-75
2023/07/27 11:11:24;;;;;;;11.95;5.82;;;;;;;17.73;100.00;99961.38;5028424;28;20029;-74
2023/07/27 11:13:50;;;;;;;7.03;4.85;;;;;;;18.14;100.00;100018.38;5016825;28;20037;-75
2023/07/27 11:16:16;;;;;;;10.30;6.40;;;;;;;17.49;100.00;99722.19;5045833;28;20029;-74
2023/07/27 11:18:42;;;;;;;7.93;5.43;;;;;;;17.03;100.00;99791.94;5009974;28;20026;-74